Vera Bisso — WDC3027 — position and weather

sailwx.info

Track history (hours):
 
Tides and Currents Weather Stations Pressure Air Temp Water Temp Dewpoint Dewpoint Depression Visibility Wind Speed Wind Dir Waves Ship Positions

Vera Bisso

Owner: E.N. Bisso & Son, Inc, New Orleans, LA. More information available from US FCC via Universal Licensing System and Coast Guard Vessel Documentation Center.

Last reported at 2015-Feb-01 00:17 UTC. Time now 2015-Feb-01 19:44 UTC.
Position N 29°56' W 090°00'.

Length 30 m; draft 6 m.

Type: Tug. MMSI: 367001730.

Date/timePositionNaut miles runAvg speedWind from/ knotsBaromVisibWave heightAir tempDewpointWater temp
2015-Feb-01 00:17N 29°56' W 090°00'21 1.4
2015-Jan-31 09:32N 29°59' W 090°24'14 0.4
2015-Jan-29 20:28N 29°55' W 090°08'2 2.2
2015-Jan-29 19:28N 29°55' W 090°06'2 0.3
2015-Jan-29 12:31N 29°55' W 090°08'7 7.7
2015-Jan-29 11:33N 29°56' W 089°60'14 6.1
2015-Jan-29 09:11N 29°42' W 089°59'6 8.9
2015-Jan-29 08:29N 29°37' W 089°54'19 9.1
2015-Jan-29 06:21N 29°25' W 089°36'38 2.4
2015-Jan-28 14:32N 29°57' W 090°01'5 4.9
2015-Jan-28 13:32N 29°55' W 090°06'0 0.1
2015-Jan-28 12:32N 29°55' W 090°06'0 0.2
2015-Jan-28 11:33N 29°55' W 090°06'1 0.5
2015-Jan-28 10:28N 29°55' W 090°05'4 4.8
2015-Jan-28 09:33N 29°57' W 090°01'0 0.0
2015-Jan-28 08:33N 29°57' W 090°01'0 0.0
2015-Jan-28 07:33N 29°57' W 090°01'0 0.0
2015-Jan-28 06:33N 29°57' W 090°01'0 0.0
2015-Jan-28 05:33N 29°57' W 090°01'1 1.3
2015-Jan-28 04:33N 29°58' W 090°02'0 0.0
2015-Jan-28 03:32N 29°58' W 090°02'29 1.8
2015-Jan-27 11:07N 30°03' W 090°36'1 1.1
2015-Jan-27 10:24N 30°03' W 090°35'1 1.0
2015-Jan-27 09:14N 30°03' W 090°33'5 6.7
2015-Jan-27 08:32N 30°02' W 090°28'5 1.2
2015-Jan-27 04:29N 29°59' W 090°24'0 0.1
2015-Jan-27 03:15N 29°59' W 090°24'0 0.0
2015-Jan-27 02:18N 29°59' W 090°24'10 0.3
2015-Jan-25 13:31N 30°03' W 090°33'1 0.3
2015-Jan-25 08:31N 30°03' W 090°35'  
Track history (hours):
 
Tides and Currents Weather Stations Pressure Air Temp Water Temp Dewpoint Dewpoint Depression Visibility Wind Speed Wind Dir Waves Ship Positions

Vera Bisso

Owner: E.N. Bisso & Son, Inc, New Orleans, LA. More information available from US FCC via Universal Licensing System and Coast Guard Vessel Documentation Center.

Last reported at 2015-Feb-01 00:17 UTC. Time now 2015-Feb-01 19:44 UTC.
Position N 29°56' W 090°00'.

Length 30 m; draft 6 m.

Type: Tug. MMSI: 367001730.

Date/timePositionNaut miles runAvg speedWind from/ knotsBaromVisibWave heightAir tempDewpointWater temp
2015-Feb-01 00:17N 29°56' W 090°00'21 1.4
2015-Jan-31 09:32N 29°59' W 090°24'14 0.4
2015-Jan-29 20:28N 29°55' W 090°08'2 2.2
2015-Jan-29 19:28N 29°55' W 090°06'2 0.3
2015-Jan-29 12:31N 29°55' W 090°08'7 7.7
2015-Jan-29 11:33N 29°56' W 089°60'14 6.1
2015-Jan-29 09:11N 29°42' W 089°59'6 8.9
2015-Jan-29 08:29N 29°37' W 089°54'19 9.1
2015-Jan-29 06:21N 29°25' W 089°36'38 2.4
2015-Jan-28 14:32N 29°57' W 090°01'5 4.9
2015-Jan-28 13:32N 29°55' W 090°06'0 0.1
2015-Jan-28 12:32N 29°55' W 090°06'0 0.2
2015-Jan-28 11:33N 29°55' W 090°06'1 0.5
2015-Jan-28 10:28N 29°55' W 090°05'4 4.8
2015-Jan-28 09:33N 29°57' W 090°01'0 0.0
2015-Jan-28 08:33N 29°57' W 090°01'0 0.0
2015-Jan-28 07:33N 29°57' W 090°01'0 0.0
2015-Jan-28 06:33N 29°57' W 090°01'0 0.0
2015-Jan-28 05:33N 29°57' W 090°01'1 1.3
2015-Jan-28 04:33N 29°58' W 090°02'0 0.0
2015-Jan-28 03:32N 29°58' W 090°02'29 1.8
2015-Jan-27 11:07N 30°03' W 090°36'1 1.1
2015-Jan-27 10:24N 30°03' W 090°35'1 1.0
2015-Jan-27 09:14N 30°03' W 090°33'5 6.7
2015-Jan-27 08:32N 30°02' W 090°28'5 1.2
2015-Jan-27 04:29N 29°59' W 090°24'0 0.1
2015-Jan-27 03:15N 29°59' W 090°24'0 0.0
2015-Jan-27 02:18N 29°59' W 090°24'10 0.3
2015-Jan-25 13:31N 30°03' W 090°33'1 0.3
2015-Jan-25 08:31N 30°03' W 090°35'  

Dump ship's entire track history